sensor_id;sensor_type;location;lat;lon;timestamp;temperature;humidity
11142;DHT22;5625;50.122;19.864;2023-07-31T00:01:33;19.30;1.00
11142;DHT22;5625;50.122;19.864;2023-07-31T00:04:01;19.30;1.00
11142;DHT22;5625;50.122;19.864;2023-07-31T00:06:30;19.30;1.00
11142;DHT22;5625;50.122;19.864;2023-07-31T00:08:58;19.30;1.00
11142;DHT22;5625;50.122;19.864;2023-07-31T00:11:26;19.30;1.00
11142;DHT22;5625;50.122;19.864;2023-07-31T00:13:54;19.20;1.00
11142;DHT22;5625;50.122;19.864;2023-07-31T00:16:23;19.20;1.00
11142;DHT22;5625;50.122;19.864;2023-07-31T00:18:53;19.20;1.00
11142;DHT22;5625;50.122;19.864;2023-07-31T00:21:21;19.10;1.00
11142;DHT22;5625;50.122;19.864;2023-07-31T00:23:52;19.10;2.00
11142;DHT22;5625;50.122;19.864;2023-07-31T00:26:20;19.00;3.40
11142;DHT22;5625;50.122;19.864;2023-07-31T00:28:51;19.10;7.80
11142;DHT22;5625;50.122;19.864;2023-07-31T00:31:19;19.00;8.70
11142;DHT22;5625;50.122;19.864;2023-07-31T00:33:48;18.90;13.60
11142;DHT22;5625;50.122;19.864;2023-07-31T00:36:17;18.90;19.00
11142;DHT22;5625;50.122;19.864;2023-07-31T00:38:45;18.90;19.10
11142;DHT22;5625;50.122;19.864;2023-07-31T00:41:13;18.80;19.90
11142;DHT22;5625;50.122;19.864;2023-07-31T00:43:41;18.80;24.40
11142;DHT22;5625;50.122;19.864;2023-07-31T00:46:10;18.80;35.10
11142;DHT22;5625;50.122;19.864;2023-07-31T00:48:39;18.80;34.60
11142;DHT22;5625;50.122;19.864;2023-07-31T00:51:09;18.70;38.10
11142;DHT22;5625;50.122;19.864;2023-07-31T00:53:38;18.70;40.50
11142;DHT22;5625;50.122;19.864;2023-07-31T00:56:11;18.70;45.30
11142;DHT22;5625;50.122;19.864;2023-07-31T00:58:40;18.70;45.90
11142;DHT22;5625;50.122;19.864;2023-07-31T01:01:08;18.60;49.10
11142;DHT22;5625;50.122;19.864;2023-07-31T01:03:36;18.60;49.60
11142;DHT22;5625;50.122;19.864;2023-07-31T01:06:14;18.60;51.50
11142;DHT22;5625;50.122;19.864;2023-07-31T01:08:51;18.60;44.70
11142;DHT22;5625;50.122;19.864;2023-07-31T01:11:27;18.60;48.90
11142;DHT22;5625;50.122;19.864;2023-07-31T01:13:57;18.60;48.10
11142;DHT22;5625;50.122;19.864;2023-07-31T01:16:25;18.50;59.40
11142;DHT22;5625;50.122;19.864;2023-07-31T01:18:54;18.50;64.80
11142;DHT22;5625;50.122;19.864;2023-07-31T01:21:41;18.50;67.20
11142;DHT22;5625;50.122;19.864;2023-07-31T01:24:22;18.50;71.20
11142;DHT22;5625;50.122;19.864;2023-07-31T01:26:57;18.50;77.60
11142;DHT22;5625;50.122;19.864;2023-07-31T01:29:34;18.40;80.90
11142;DHT22;5625;50.122;19.864;2023-07-31T01:32:05;18.40;84.10
11142;DHT22;5625;50.122;19.864;2023-07-31T01:34:34;18.40;90.50
11142;DHT22;5625;50.122;19.864;2023-07-31T01:37:03;18.40;92.60
11142;DHT22;5625;50.122;19.864;2023-07-31T01:39:32;18.40;93.20
11142;DHT22;5625;50.122;19.864;2023-07-31T01:42:01;18.40;97.20
11142;DHT22;5625;50.122;19.864;2023-07-31T01:44:29;18.30;97.70
11142;DHT22;5625;50.122;19.864;2023-07-31T01:46:57;18.30;99.80
11142;DHT22;5625;50.122;19.864;2023-07-31T01:49:26;18.30;99.90
11142;DHT22;5625;50.122;19.864;2023-07-31T01:51:54;18.30;99.90
11142;DHT22;5625;50.122;19.864;2023-07-31T01:54:23;18.30;99.90
11142;DHT22;5625;50.122;19.864;2023-07-31T01:56:51;18.30;99.90
11142;DHT22;5625;50.122;19.864;2023-07-31T01:59:20;18.30;99.90
11142;DHT22;5625;50.122;19.864;2023-07-31T02:01:48;18.30;99.90
11142;DHT22;5625;50.122;19.864;2023-07-31T02:04:20;18.30;99.90
11142;DHT22;5625;50.122;19.864;2023-07-31T02:06:48;18.30;99.90
11142;DHT22;5625;50.122;19.864;2023-07-31T02:09:16;18.30;99.90
11142;DHT22;5625;50.122;19.864;2023-07-31T02:11:44;18.20;99.90
11142;DHT22;5625;50.122;19.864;2023-07-31T02:14:12;18.20;99.90
11142;DHT22;5625;50.122;19.864;2023-07-31T02:16:42;18.20;99.90
11142;DHT22;5625;50.122;19.864;2023-07-31T02:19:10;18.20;99.90
11142;DHT22;5625;50.122;19.864;2023-07-31T02:21:38;18.20;99.90
11142;DHT22;5625;50.122;19.864;2023-07-31T02:24:06;18.10;99.90
11142;DHT22;5625;50.122;19.864;2023-07-31T02:26:34;18.20;99.90
11142;DHT22;5625;50.122;19.864;2023-07-31T02:29:03;18.10;99.90
11142;DHT22;5625;50.122;19.864;2023-07-31T02:31:31;18.10;99.90
11142;DHT22;5625;50.122;19.864;2023-07-31T02:34:01;18.10;99.90
11142;DHT22;5625;50.122;19.864;2023-07-31T02:36:30;18.10;99.90
11142;DHT22;5625;50.122;19.864;2023-07-31T02:38:58;18.10;99.90
11142;DHT22;5625;50.122;19.864;2023-07-31T02:41:26;18.10;99.90
11142;DHT22;5625;50.122;19.864;2023-07-31T02:43:54;18.00;99.90
11142;DHT22;5625;50.122;19.864;2023-07-31T02:46:22;18.00;99.90
11142;DHT22;5625;50.122;19.864;2023-07-31T02:48:51;18.00;99.90
11142;DHT22;5625;50.122;19.864;2023-07-31T02:51:21;18.00;99.90
11142;DHT22;5625;50.122;19.864;2023-07-31T02:53:49;18.00;99.90
11142;DHT22;5625;50.122;19.864;2023-07-31T02:56:17;18.00;99.90
11142;DHT22;5625;50.122;19.864;2023-07-31T02:58:45;18.00;99.90
11142;DHT22;5625;50.122;19.864;2023-07-31T03:01:13;18.00;99.90
11142;DHT22;5625;50.122;19.864;2023-07-31T03:03:41;18.00;99.90
11142;DHT22;5625;50.122;19.864;2023-07-31T03:06:09;18.00;99.90
11142;DHT22;5625;50.122;19.864;2023-07-31T03:08:39;18.00;99.90
11142;DHT22;5625;50.122;19.864;2023-07-31T03:11:07;18.00;99.90
11142;DHT22;5625;50.122;19.864;2023-07-31T03:13:35;18.00;99.90
11142;DHT22;5625;50.122;19.864;2023-07-31T03:16:03;18.00;99.90
11142;DHT22;5625;50.122;19.864;2023-07-31T03:18:31;18.00;99.90
11142;DHT22;5625;50.122;19.864;2023-07-31T03:21:00;18.00;99.90
11142;DHT22;5625;50.122;19.864;2023-07-31T03:23:30;18.00;99.90
11142;DHT22;5625;50.122;19.864;2023-07-31T03:26:01;18.00;99.90
11142;DHT22;5625;50.122;19.864;2023-07-31T03:28:30;18.00;99.90
11142;DHT22;5625;50.122;19.864;2023-07-31T03:30:58;18.00;99.90
11142;DHT22;5625;50.122;19.864;2023-07-31T03:33:26;18.00;99.90
11142;DHT22;5625;50.122;19.864;2023-07-31T03:35:55;18.00;99.90
11142;DHT22;5625;50.122;19.864;2023-07-31T03:38:23;18.00;99.90
11142;DHT22;5625;50.122;19.864;2023-07-31T03:40:51;18.00;99.90
11142;DHT22;5625;50.122;19.864;2023-07-31T03:43:20;18.00;99.90
11142;DHT22;5625;50.122;19.864;2023-07-31T03:45:48;18.00;99.90
11142;DHT22;5625;50.122;19.864;2023-07-31T03:48:16;18.00;99.90
11142;DHT22;5625;50.122;19.864;2023-07-31T03:50:44;18.10;99.90
11142;DHT22;5625;50.122;19.864;2023-07-31T03:53:12;18.10;99.90
11142;DHT22;5625;50.122;19.864;2023-07-31T03:55:41;18.10;99.90
11142;DHT22;5625;50.122;19.864;2023-07-31T03:58:09;18.10;99.90
11142;DHT22;5625;50.122;19.864;2023-07-31T04:00:39;18.10;99.90
11142;DHT22;5625;50.122;19.864;2023-07-31T04:03:08;18.10;99.90
11142;DHT22;5625;50.122;19.864;2023-07-31T04:05:38;18.10;99.90
11142;DHT22;5625;50.122;19.864;2023-07-31T04:08:06;18.10;99.90
11142;DHT22;5625;50.122;19.864;2023-07-31T04:10:34;18.10;99.90
11142;DHT22;5625;50.122;19.864;2023-07-31T04:13:02;18.20;99.90
11142;DHT22;5625;50.122;19.864;2023-07-31T04:15:30;18.20;99.90
11142;DHT22;5625;50.122;19.864;2023-07-31T04:18:00;18.20;99.90
11142;DHT22;5625;50.122;19.864;2023-07-31T04:20:28;18.20;99.90
11142;DHT22;5625;50.122;19.864;2023-07-31T04:22:56;18.20;99.90
11142;DHT22;5625;50.122;19.864;2023-07-31T04:25:24;18.30;99.90
11142;DHT22;5625;50.122;19.864;2023-07-31T04:27:52;18.30;99.90
11142;DHT22;5625;50.122;19.864;2023-07-31T04:30:20;18.30;99.90
11142;DHT22;5625;50.122;19.864;2023-07-31T04:32:48;18.40;99.90
11142;DHT22;5625;50.122;19.864;2023-07-31T04:35:18;18.50;99.90
11142;DHT22;5625;50.122;19.864;2023-07-31T04:37:46;18.50;99.90
11142;DHT22;5625;50.122;19.864;2023-07-31T04:40:16;18.50;99.90
11142;DHT22;5625;50.122;19.864;2023-07-31T04:42:44;18.50;99.90
11142;DHT22;5625;50.122;19.864;2023-07-31T04:45:13;18.50;99.90
11142;DHT22;5625;50.122;19.864;2023-07-31T04:47:41;18.60;99.90
11142;DHT22;5625;50.122;19.864;2023-07-31T04:50:10;18.60;99.40
11142;DHT22;5625;50.122;19.864;2023-07-31T04:52:39;18.60;97.00
11142;DHT22;5625;50.122;19.864;2023-07-31T04:55:08;18.70;93.50
11142;DHT22;5625;50.122;19.864;2023-07-31T04:57:36;18.80;88.90
11142;DHT22;5625;50.122;19.864;2023-07-31T05:00:06;18.90;79.00
11142;DHT22;5625;50.122;19.864;2023-07-31T05:02:34;19.00;73.90
11142;DHT22;5625;50.122;19.864;2023-07-31T05:05:02;19.10;65.90
11142;DHT22;5625;50.122;19.864;2023-07-31T05:07:33;19.20;48.10
11142;DHT22;5625;50.122;19.864;2023-07-31T05:10:02;19.40;33.10
11142;DHT22;5625;50.122;19.864;2023-07-31T05:12:31;19.40;17.10
11142;DHT22;5625;50.122;19.864;2023-07-31T05:14:59;19.50;13.00
11142;DHT22;5625;50.122;19.864;2023-07-31T05:17:27;19.50;7.70
11142;DHT22;5625;50.122;19.864;2023-07-31T05:19:55;19.60;4.60
11142;DHT22;5625;50.122;19.864;2023-07-31T05:22:25;19.60;1.00
11142;DHT22;5625;50.122;19.864;2023-07-31T05:24:53;19.60;1.00
11142;DHT22;5625;50.122;19.864;2023-07-31T05:27:23;19.60;1.00
11142;DHT22;5625;50.122;19.864;2023-07-31T05:29:51;19.70;1.00
11142;DHT22;5625;50.122;19.864;2023-07-31T05:32:19;19.70;1.00
11142;DHT22;5625;50.122;19.864;2023-07-31T05:34:47;19.80;1.00
11142;DHT22;5625;50.122;19.864;2023-07-31T05:37:15;19.80;1.00
11142;DHT22;5625;50.122;19.864;2023-07-31T05:39:43;19.80;1.00
11142;DHT22;5625;50.122;19.864;2023-07-31T05:42:12;19.80;1.00
11142;DHT22;5625;50.122;19.864;2023-07-31T05:44:41;19.90;1.00
11142;DHT22;5625;50.122;19.864;2023-07-31T05:47:09;19.90;1.00
11142;DHT22;5625;50.122;19.864;2023-07-31T05:49:37;19.90;1.00
11142;DHT22;5625;50.122;19.864;2023-07-31T05:52:06;19.90;1.00
11142;DHT22;5625;50.122;19.864;2023-07-31T05:54:34;19.90;1.00
11142;DHT22;5625;50.122;19.864;2023-07-31T05:57:03;19.90;1.00
11142;DHT22;5625;50.122;19.864;2023-07-31T05:59:31;19.90;1.00
11142;DHT22;5625;50.122;19.864;2023-07-31T06:02:01;19.90;1.00
11142;DHT22;5625;50.122;19.864;2023-07-31T06:04:30;19.90;1.00
11142;DHT22;5625;50.122;19.864;2023-07-31T06:06:59;20.00;1.00
11142;DHT22;5625;50.122;19.864;2023-07-31T06:09:27;20.00;1.00
11142;DHT22;5625;50.122;19.864;2023-07-31T06:11:55;20.00;1.00
11142;DHT22;5625;50.122;19.864;2023-07-31T06:14:26;20.10;1.00
11142;DHT22;5625;50.122;19.864;2023-07-31T06:16:54;20.10;1.00
11142;DHT22;5625;50.122;19.864;2023-07-31T06:19:27;20.10;1.00
11142;DHT22;5625;50.122;19.864;2023-07-31T06:21:55;20.10;1.00
11142;DHT22;5625;50.122;19.864;2023-07-31T06:24:26;20.20;1.00
11142;DHT22;5625;50.122;19.864;2023-07-31T06:26:54;20.20;1.00
11142;DHT22;5625;50.122;19.864;2023-07-31T06:29:24;20.30;1.00
11142;DHT22;5625;50.122;19.864;2023-07-31T06:31:52;20.30;1.00
11142;DHT22;5625;50.122;19.864;2023-07-31T06:34:20;20.40;1.00
11142;DHT22;5625;50.122;19.864;2023-07-31T06:36:50;20.60;99.90
11142;DHT22;5625;50.122;19.864;2023-07-31T06:39:18;20.80;99.90
11142;DHT22;5625;50.122;19.864;2023-07-31T06:41:46;21.10;99.90
11142;DHT22;5625;50.122;19.864;2023-07-31T06:44:14;21.30;99.90
11142;DHT22;5625;50.122;19.864;2023-07-31T06:46:42;21.40;99.90
11142;DHT22;5625;50.122;19.864;2023-07-31T06:49:10;21.50;99.90
11142;DHT22;5625;50.122;19.864;2023-07-31T06:51:42;21.60;56.50
11142;DHT22;5625;50.122;19.864;2023-07-31T06:54:12;21.60;1.00
11142;DHT22;5625;50.122;19.864;2023-07-31T06:56:40;21.50;1.00
11142;DHT22;5625;50.122;19.864;2023-07-31T06:59:08;21.60;1.00
11142;DHT22;5625;50.122;19.864;2023-07-31T07:01:36;21.60;1.00
11142;DHT22;5625;50.122;19.864;2023-07-31T07:04:04;21.60;1.00
11142;DHT22;5625;50.122;19.864;2023-07-31T07:06:32;21.60;1.00
11142;DHT22;5625;50.122;19.864;2023-07-31T07:09:01;21.60;1.00
11142;DHT22;5625;50.122;19.864;2023-07-31T07:11:31;21.50;1.00
11142;DHT22;5625;50.122;19.864;2023-07-31T07:13:59;21.50;1.00
11142;DHT22;5625;50.122;19.864;2023-07-31T07:16:28;21.50;1.00
11142;DHT22;5625;50.122;19.864;2023-07-31T07:18:56;21.50;1.00
11142;DHT22;5625;50.122;19.864;2023-07-31T07:21:31;21.50;1.00
11142;DHT22;5625;50.122;19.864;2023-07-31T07:23:59;21.60;1.00
11142;DHT22;5625;50.122;19.864;2023-07-31T07:26:27;21.70;1.00
11142;DHT22;5625;50.122;19.864;2023-07-31T07:28:57;21.70;1.00
11142;DHT22;5625;50.122;19.864;2023-07-31T07:31:28;21.70;99.90
11142;DHT22;5625;50.122;19.864;2023-07-31T07:33:56;21.70;99.90
11142;DHT22;5625;50.122;19.864;2023-07-31T07:36:27;21.80;93.40
11142;DHT22;5625;50.122;19.864;2023-07-31T07:38:55;21.80;99.90
11142;DHT22;5625;50.122;19.864;2023-07-31T07:41:24;21.90;99.90
11142;DHT22;5625;50.122;19.864;2023-07-31T07:43:52;22.00;81.10
11142;DHT22;5625;50.122;19.864;2023-07-31T07:46:22;22.10;64.80
11142;DHT22;5625;50.122;19.864;2023-07-31T07:48:50;22.20;74.50
11142;DHT22;5625;50.122;19.864;2023-07-31T07:51:18;22.30;38.00
11142;DHT22;5625;50.122;19.864;2023-07-31T07:53:46;22.40;1.00
11142;DHT22;5625;50.122;19.864;2023-07-31T07:56:14;22.50;99.90
11142;DHT22;5625;50.122;19.864;2023-07-31T07:58:42;22.50;99.90
11142;DHT22;5625;50.122;19.864;2023-07-31T08:01:10;22.70;99.90
11142;DHT22;5625;50.122;19.864;2023-07-31T08:03:40;22.70;99.90
11142;DHT22;5625;50.122;19.864;2023-07-31T08:06:08;22.70;1.40
11142;DHT22;5625;50.122;19.864;2023-07-31T08:08:37;22.70;99.90
11142;DHT22;5625;50.122;19.864;2023-07-31T08:11:05;22.90;99.90
11142;DHT22;5625;50.122;19.864;2023-07-31T08:13:34;22.90;99.90
11142;DHT22;5625;50.122;19.864;2023-07-31T08:16:06;22.80;1.00
11142;DHT22;5625;50.122;19.864;2023-07-31T08:18:35;23.00;1.00
11142;DHT22;5625;50.122;19.864;2023-07-31T08:21:07;23.20;1.00
11142;DHT22;5625;50.122;19.864;2023-07-31T08:23:36;23.30;1.00
11142;DHT22;5625;50.122;19.864;2023-07-31T08:26:04;23.50;99.90
11142;DHT22;5625;50.122;19.864;2023-07-31T08:28:32;23.60;99.90
11142;DHT22;5625;50.122;19.864;2023-07-31T08:31:00;23.80;99.90
11142;DHT22;5625;50.122;19.864;2023-07-31T08:33:28;24.10;1.00
11142;DHT22;5625;50.122;19.864;2023-07-31T08:35:56;24.20;99.90
11142;DHT22;5625;50.122;19.864;2023-07-31T08:38:27;24.50;99.90
11142;DHT22;5625;50.122;19.864;2023-07-31T08:40:57;24.90;1.00
11142;DHT22;5625;50.122;19.864;2023-07-31T08:43:25;25.40;99.90
11142;DHT22;5625;50.122;19.864;2023-07-31T08:45:54;25.80;21.90
11142;DHT22;5625;50.122;19.864;2023-07-31T08:48:23;25.80;99.90
11142;DHT22;5625;50.122;19.864;2023-07-31T08:50:52;25.80;99.90
11142;DHT22;5625;50.122;19.864;2023-07-31T08:53:20;26.00;4.90
11142;DHT22;5625;50.122;19.864;2023-07-31T08:55:52;26.10;99.90
11142;DHT22;5625;50.122;19.864;2023-07-31T08:58:21;26.30;99.90
11142;DHT22;5625;50.122;19.864;2023-07-31T09:00:49;26.50;99.90
11142;DHT22;5625;50.122;19.864;2023-07-31T09:03:23;26.60;59.80
11142;DHT22;5625;50.122;19.864;2023-07-31T09:05:53;26.70;1.00
11142;DHT22;5625;50.122;19.864;2023-07-31T09:08:22;26.80;1.00
11142;DHT22;5625;50.122;19.864;2023-07-31T09:10:53;27.10;1.00
11142;DHT22;5625;50.122;19.864;2023-07-31T09:13:22;27.60;1.00
11142;DHT22;5625;50.122;19.864;2023-07-31T09:15:52;28.10;99.90
11142;DHT22;5625;50.122;19.864;2023-07-31T09:18:20;28.20;99.90
11142;DHT22;5625;50.122;19.864;2023-07-31T09:21:00;28.30;99.90
11142;DHT22;5625;50.122;19.864;2023-07-31T09:23:40;28.50;99.90
11142;DHT22;5625;50.122;19.864;2023-07-31T09:26:10;28.80;99.90
11142;DHT22;5625;50.122;19.864;2023-07-31T09:28:39;29.00;30.40
11142;DHT22;5625;50.122;19.864;2023-07-31T09:31:11;29.00;1.00
11142;DHT22;5625;50.122;19.864;2023-07-31T09:33:54;29.20;1.00
11142;DHT22;5625;50.122;19.864;2023-07-31T09:36:23;29.30;99.90
11142;DHT22;5625;50.122;19.864;2023-07-31T09:38:51;29.40;99.90
11142;DHT22;5625;50.122;19.864;2023-07-31T09:41:21;29.60;99.90
11142;DHT22;5625;50.122;19.864;2023-07-31T09:43:53;29.70;99.90
11142;DHT22;5625;50.122;19.864;2023-07-31T09:46:21;29.90;99.90
11142;DHT22;5625;50.122;19.864;2023-07-31T09:48:49;30.10;99.90
11142;DHT22;5625;50.122;19.864;2023-07-31T09:51:26;30.20;99.90
11142;DHT22;5625;50.122;19.864;2023-07-31T09:53:54;30.20;99.90
11142;DHT22;5625;50.122;19.864;2023-07-31T09:56:24;30.30;99.90
11142;DHT22;5625;50.122;19.864;2023-07-31T09:58:54;30.40;99.90
11142;DHT22;5625;50.122;19.864;2023-07-31T10:01:23;30.50;99.90
11142;DHT22;5625;50.122;19.864;2023-07-31T10:03:51;30.50;99.90
11142;DHT22;5625;50.122;19.864;2023-07-31T10:06:19;30.50;99.90
11142;DHT22;5625;50.122;19.864;2023-07-31T10:08:47;30.60;99.90
11142;DHT22;5625;50.122;19.864;2023-07-31T10:11:17;30.80;99.90
11142;DHT22;5625;50.122;19.864;2023-07-31T10:13:46;30.40;99.90
11142;DHT22;5625;50.122;19.864;2023-07-31T10:16:15;30.00;99.90
11142;DHT22;5625;50.122;19.864;2023-07-31T10:18:44;29.70;99.90
11142;DHT22;5625;50.122;19.864;2023-07-31T10:21:13;29.90;99.90
11142;DHT22;5625;50.122;19.864;2023-07-31T10:23:42;29.80;99.90
11142;DHT22;5625;50.122;19.864;2023-07-31T10:26:13;29.60;99.90
11142;DHT22;5625;50.122;19.864;2023-07-31T10:28:43;29.80;99.90
11142;DHT22;5625;50.122;19.864;2023-07-31T10:31:13;29.90;99.90
11142;DHT22;5625;50.122;19.864;2023-07-31T10:33:42;30.20;99.30
11142;DHT22;5625;50.122;19.864;2023-07-31T10:36:14;30.00;99.30
11142;DHT22;5625;50.122;19.864;2023-07-31T10:38:43;29.70;99.90
11142;DHT22;5625;50.122;19.864;2023-07-31T10:41:11;29.70;99.90
11142;DHT22;5625;50.122;19.864;2023-07-31T10:43:40;29.70;99.90
11142;DHT22;5625;50.122;19.864;2023-07-31T10:46:08;30.00;99.90
11142;DHT22;5625;50.122;19.864;2023-07-31T10:48:38;29.90;98.70
11142;DHT22;5625;50.122;19.864;2023-07-31T10:51:09;29.70;99.90
11142;DHT22;5625;50.122;19.864;2023-07-31T10:53:38;29.90;97.30
11142;DHT22;5625;50.122;19.864;2023-07-31T10:56:08;30.00;92.90
11142;DHT22;5625;50.122;19.864;2023-07-31T10:58:37;30.20;91.90
11142;DHT22;5625;50.122;19.864;2023-07-31T11:01:05;30.20;92.20
11142;DHT22;5625;50.122;19.864;2023-07-31T11:03:46;30.20;87.90
11142;DHT22;5625;50.122;19.864;2023-07-31T11:06:16;30.10;79.50
11142;DHT22;5625;50.122;19.864;2023-07-31T11:08:46;29.80;89.20
11142;DHT22;5625;50.122;19.864;2023-07-31T11:11:18;29.70;85.70
11142;DHT22;5625;50.122;19.864;2023-07-31T11:13:48;29.60;88.60
11142;DHT22;5625;50.122;19.864;2023-07-31T11:16:18;29.70;87.50
11142;DHT22;5625;50.122;19.864;2023-07-31T11:18:48;29.90;84.80
11142;DHT22;5625;50.122;19.864;2023-07-31T11:21:19;30.20;82.60
11142;DHT22;5625;50.122;19.864;2023-07-31T11:23:48;30.20;78.00
11142;DHT22;5625;50.122;19.864;2023-07-31T11:26:17;30.20;73.70
11142;DHT22;5625;50.122;19.864;2023-07-31T11:28:47;30.30;70.40
11142;DHT22;5625;50.122;19.864;2023-07-31T11:31:15;30.50;73.00
11142;DHT22;5625;50.122;19.864;2023-07-31T11:33:44;30.40;59.90
11142;DHT22;5625;50.122;19.864;2023-07-31T11:36:16;30.40;65.40
11142;DHT22;5625;50.122;19.864;2023-07-31T11:38:45;30.50;55.00
11142;DHT22;5625;50.122;19.864;2023-07-31T11:41:15;30.20;42.80
11142;DHT22;5625;50.122;19.864;2023-07-31T11:43:43;29.80;40.20
11142;DHT22;5625;50.122;19.864;2023-07-31T11:46:11;29.50;48.50
11142;DHT22;5625;50.122;19.864;2023-07-31T11:48:42;29.30;57.80
11142;DHT22;5625;50.122;19.864;2023-07-31T11:51:15;29.00;57.50
11142;DHT22;5625;50.122;19.864;2023-07-31T11:53:45;29.00;68.40
11142;DHT22;5625;50.122;19.864;2023-07-31T11:56:17;29.10;84.10
11142;DHT22;5625;50.122;19.864;2023-07-31T11:58:47;29.50;87.40
11142;DHT22;5625;50.122;19.864;2023-07-31T12:01:19;29.80;80.70
11142;DHT22;5625;50.122;19.864;2023-07-31T12:03:49;29.90;70.70
11142;DHT22;5625;50.122;19.864;2023-07-31T12:06:19;30.10;72.30
11142;DHT22;5625;50.122;19.864;2023-07-31T12:08:48;30.10;66.50
11142;DHT22;5625;50.122;19.864;2023-07-31T12:11:16;29.90;62.70
11142;DHT22;5625;50.122;19.864;2023-07-31T12:13:45;30.00;68.70
11142;DHT22;5625;50.122;19.864;2023-07-31T12:16:13;30.20;65.40
11142;DHT22;5625;50.122;19.864;2023-07-31T12:18:41;30.40;61.90
11142;DHT22;5625;50.122;19.864;2023-07-31T12:21:09;30.30;32.60
11142;DHT22;5625;50.122;19.864;2023-07-31T12:23:41;30.00;34.70
11142;DHT22;5625;50.122;19.864;2023-07-31T12:26:13;29.70;29.90
11142;DHT22;5625;50.122;19.864;2023-07-31T12:28:42;29.50;33.20
11142;DHT22;5625;50.122;19.864;2023-07-31T12:31:12;29.30;37.80
11142;DHT22;5625;50.122;19.864;2023-07-31T12:33:41;29.40;45.80
11142;DHT22;5625;50.122;19.864;2023-07-31T12:36:12;29.70;55.90
11142;DHT22;5625;50.122;19.864;2023-07-31T12:38:42;29.90;50.70
11142;DHT22;5625;50.122;19.864;2023-07-31T12:41:11;30.00;50.20
11142;DHT22;5625;50.122;19.864;2023-07-31T12:43:40;30.10;51.90
11142;DHT22;5625;50.122;19.864;2023-07-31T12:46:08;30.20;52.50
11142;DHT22;5625;50.122;19.864;2023-07-31T12:48:38;30.10;43.40
11142;DHT22;5625;50.122;19.864;2023-07-31T12:51:06;30.10;36.70
11142;DHT22;5625;50.122;19.864;2023-07-31T12:53:35;30.00;31.10
11142;DHT22;5625;50.122;19.864;2023-07-31T12:56:04;30.00;34.90
11142;DHT22;5625;50.122;19.864;2023-07-31T12:58:32;30.00;36.00
11142;DHT22;5625;50.122;19.864;2023-07-31T13:01:00;30.10;36.70
11142;DHT22;5625;50.122;19.864;2023-07-31T13:03:29;30.00;31.80
11142;DHT22;5625;50.122;19.864;2023-07-31T13:05:57;30.00;24.00
11142;DHT22;5625;50.122;19.864;2023-07-31T13:08:25;29.90;20.80
11142;DHT22;5625;50.122;19.864;2023-07-31T13:10:53;29.90;22.60
11142;DHT22;5625;50.122;19.864;2023-07-31T13:13:23;29.80;17.40
11142;DHT22;5625;50.122;19.864;2023-07-31T13:15:51;29.80;16.60
11142;DHT22;5625;50.122;19.864;2023-07-31T13:18:19;29.90;17.00
11142;DHT22;5625;50.122;19.864;2023-07-31T13:20:47;29.90;22.40
11142;DHT22;5625;50.122;19.864;2023-07-31T13:23:15;29.70;18.30
11142;DHT22;5625;50.122;19.864;2023-07-31T13:25:46;29.60;21.50
11142;DHT22;5625;50.122;19.864;2023-07-31T13:28:14;29.50;21.50
11142;DHT22;5625;50.122;19.864;2023-07-31T13:30:45;29.30;22.10
11142;DHT22;5625;50.122;19.864;2023-07-31T13:33:13;29.30;31.30
11142;DHT22;5625;50.122;19.864;2023-07-31T13:36:02;29.40;39.00
11142;DHT22;5625;50.122;19.864;2023-07-31T13:38:30;29.30;38.20
11142;DHT22;5625;50.122;19.864;2023-07-31T13:40:58;29.20;36.50
11142;DHT22;5625;50.122;19.864;2023-07-31T13:43:26;29.20;37.00
11142;DHT22;5625;50.122;19.864;2023-07-31T13:45:55;29.30;30.90
11142;DHT22;5625;50.122;19.864;2023-07-31T13:48:23;29.20;27.30
11142;DHT22;5625;50.122;19.864;2023-07-31T13:50:51;29.10;21.40
11142;DHT22;5625;50.122;19.864;2023-07-31T13:53:20;29.00;22.50
11142;DHT22;5625;50.122;19.864;2023-07-31T13:55:48;29.00;24.60
11142;DHT22;5625;50.122;19.864;2023-07-31T13:58:17;28.90;23.60
11142;DHT22;5625;50.122;19.864;2023-07-31T14:00:48;28.90;24.50
11142;DHT22;5625;50.122;19.864;2023-07-31T14:03:17;28.90;22.70
11142;DHT22;5625;50.122;19.864;2023-07-31T14:05:45;28.80;20.10
11142;DHT22;5625;50.122;19.864;2023-07-31T14:08:13;28.80;22.20
11142;DHT22;5625;50.122;19.864;2023-07-31T14:10:42;28.80;21.10
11142;DHT22;5625;50.122;19.864;2023-07-31T14:13:10;28.70;19.60
11142;DHT22;5625;50.122;19.864;2023-07-31T14:15:39;28.80;20.10
11142;DHT22;5625;50.122;19.864;2023-07-31T14:18:07;28.70;22.90
11142;DHT22;5625;50.122;19.864;2023-07-31T14:20:36;28.70;22.90
11142;DHT22;5625;50.122;19.864;2023-07-31T14:23:05;28.60;21.20
11142;DHT22;5625;50.122;19.864;2023-07-31T14:25:33;28.50;20.90
11142;DHT22;5625;50.122;19.864;2023-07-31T14:28:01;28.50;25.30
11142;DHT22;5625;50.122;19.864;2023-07-31T14:30:30;28.60;31.00
11142;DHT22;5625;50.122;19.864;2023-07-31T14:32:58;28.60;31.80
11142;DHT22;5625;50.122;19.864;2023-07-31T14:35:27;28.50;20.50
11142;DHT22;5625;50.122;19.864;2023-07-31T14:37:56;28.40;15.90
11142;DHT22;5625;50.122;19.864;2023-07-31T14:40:25;28.30;14.00
11142;DHT22;5625;50.122;19.864;2023-07-31T14:42:53;28.20;15.50
11142;DHT22;5625;50.122;19.864;2023-07-31T14:45:21;28.20;19.70
11142;DHT22;5625;50.122;19.864;2023-07-31T14:47:49;28.20;15.90
11142;DHT22;5625;50.122;19.864;2023-07-31T14:50:19;28.20;17.90
11142;DHT22;5625;50.122;19.864;2023-07-31T14:52:47;28.10;26.20
11142;DHT22;5625;50.122;19.864;2023-07-31T14:55:18;27.90;29.10
11142;DHT22;5625;50.122;19.864;2023-07-31T14:57:46;27.80;32.90
11142;DHT22;5625;50.122;19.864;2023-07-31T15:00:14;27.60;35.00
11142;DHT22;5625;50.122;19.864;2023-07-31T15:02:43;27.50;39.20
11142;DHT22;5625;50.122;19.864;2023-07-31T15:05:12;27.40;39.40
11142;DHT22;5625;50.122;19.864;2023-07-31T15:07:40;27.40;43.50
11142;DHT22;5625;50.122;19.864;2023-07-31T15:10:08;27.40;47.50
11142;DHT22;5625;50.122;19.864;2023-07-31T15:12:40;27.30;44.90
11142;DHT22;5625;50.122;19.864;2023-07-31T15:15:08;27.30;42.30
11142;DHT22;5625;50.122;19.864;2023-07-31T15:17:36;27.20;45.00
11142;DHT22;5625;50.122;19.864;2023-07-31T15:20:06;27.10;51.10
11142;DHT22;5625;50.122;19.864;2023-07-31T15:22:34;27.00;52.30
11142;DHT22;5625;50.122;19.864;2023-07-31T15:25:02;27.00;56.70
11142;DHT22;5625;50.122;19.864;2023-07-31T15:27:30;26.90;64.20
11142;DHT22;5625;50.122;19.864;2023-07-31T15:30:00;26.90;68.90
11142;DHT22;5625;50.122;19.864;2023-07-31T15:32:28;26.80;85.10
11142;DHT22;5625;50.122;19.864;2023-07-31T15:34:56;26.80;87.60
11142;DHT22;5625;50.122;19.864;2023-07-31T15:37:26;26.70;93.80
11142;DHT22;5625;50.122;19.864;2023-07-31T15:39:54;26.70;92.10
11142;DHT22;5625;50.122;19.864;2023-07-31T15:42:22;26.60;92.50
11142;DHT22;5625;50.122;19.864;2023-07-31T15:44:51;26.50;94.20
11142;DHT22;5625;50.122;19.864;2023-07-31T15:47:21;26.50;95.10